sensor_id;sensor_type;location;lat;lon;timestamp;temperature;humidity
14142;DHT22;7151;52.246;4.820;2022-08-11T00:03:50;28.60;49.50
14142;DHT22;7151;52.246;4.820;2022-08-11T00:06:38;28.50;49.60
14142;DHT22;7151;52.246;4.820;2022-08-11T00:09:07;28.40;49.70
14142;DHT22;7151;52.246;4.820;2022-08-11T00:17:02;28.20;49.90
14142;DHT22;7151;52.246;4.820;2022-08-11T00:19:31;28.10;50.00
14142;DHT22;7151;52.246;4.820;2022-08-11T00:21:57;28.10;50.00
14142;DHT22;7151;52.246;4.820;2022-08-11T00:24:24;28.00;50.00
14142;DHT22;7151;52.246;4.820;2022-08-11T00:26:56;27.90;50.00
14142;DHT22;7151;52.246;4.820;2022-08-11T00:29:22;27.90;50.10
14142;DHT22;7151;52.246;4.820;2022-08-11T00:31:50;27.90;50.30
14142;DHT22;7151;52.246;4.820;2022-08-11T00:34:19;27.80;50.40
14142;DHT22;7151;52.246;4.820;2022-08-11T00:36:50;27.80;50.50
14142;DHT22;7151;52.246;4.820;2022-08-11T00:39:19;27.70;50.60
14142;DHT22;7151;52.246;4.820;2022-08-11T00:45:04;27.70;50.90
14142;DHT22;7151;52.246;4.820;2022-08-11T00:53:07;27.60;51.10
14142;DHT22;7151;52.246;4.820;2022-08-11T01:07:12;27.30;51.40
14142;DHT22;7151;52.246;4.820;2022-08-11T01:21:34;27.10;51.70
14142;DHT22;7151;52.246;4.820;2022-08-11T01:33:03;27.00;52.00
14142;DHT22;7151;52.246;4.820;2022-08-11T01:38:54;26.90;52.10
14142;DHT22;7151;52.246;4.820;2022-08-11T01:47:41;26.80;52.10
14142;DHT22;7151;52.246;4.820;2022-08-11T01:53:29;26.70;52.30
14142;DHT22;7151;52.246;4.820;2022-08-11T01:56:19;26.70;52.40
14142;DHT22;7151;52.246;4.820;2022-08-11T02:01:44;26.60;52.50
14142;DHT22;7151;52.246;4.820;2022-08-11T02:07:35;26.60;52.60
14142;DHT22;7151;52.246;4.820;2022-08-11T02:10:37;26.50;52.60
14142;DHT22;7151;52.246;4.820;2022-08-11T02:13:53;26.50;52.60
14142;DHT22;7151;52.246;4.820;2022-08-11T02:16:46;26.40;52.60
14142;DHT22;7151;52.246;4.820;2022-08-11T02:25:17;26.40;52.70
14142;DHT22;7151;52.246;4.820;2022-08-11T02:27:52;26.40;52.70
14142;DHT22;7151;52.246;4.820;2022-08-11T02:30:24;26.30;52.70
14142;DHT22;7151;52.246;4.820;2022-08-11T02:33:03;26.30;52.70
14142;DHT22;7151;52.246;4.820;2022-08-11T02:36:24;26.30;52.80
14142;DHT22;7151;52.246;4.820;2022-08-11T02:39:07;26.20;52.80
14142;DHT22;7151;52.246;4.820;2022-08-11T02:42:39;26.20;52.80
14142;DHT22;7151;52.246;4.820;2022-08-11T02:48:05;26.20;52.80
14142;DHT22;7151;52.246;4.820;2022-08-11T03:02:32;26.00;52.90
14142;DHT22;7151;52.246;4.820;2022-08-11T03:05:15;26.00;53.00
14142;DHT22;7151;52.246;4.820;2022-08-11T03:10:20;26.00;53.10
14142;DHT22;7151;52.246;4.820;2022-08-11T03:16:14;25.90;53.20
14142;DHT22;7151;52.246;4.820;2022-08-11T03:22:29;25.80;53.20
14142;DHT22;7151;52.246;4.820;2022-08-11T03:25:14;25.80;53.20
14142;DHT22;7151;52.246;4.820;2022-08-11T03:27:47;25.80;53.20
14142;DHT22;7151;52.246;4.820;2022-08-11T03:30:18;25.80;53.30
14142;DHT22;7151;52.246;4.820;2022-08-11T03:35:41;25.70;53.40
14142;DHT22;7151;52.246;4.820;2022-08-11T03:38:13;25.70;53.40
14142;DHT22;7151;52.246;4.820;2022-08-11T03:41:10;25.70;53.40
14142;DHT22;7151;52.246;4.820;2022-08-11T03:47:26;25.60;53.40
14142;DHT22;7151;52.246;4.820;2022-08-11T03:50:05;25.60;53.50
14142;DHT22;7151;52.246;4.820;2022-08-11T03:52:55;25.50;53.40
14142;DHT22;7151;52.246;4.820;2022-08-11T03:55:46;25.50;53.60
14142;DHT22;7151;52.246;4.820;2022-08-11T04:10:36;25.30;53.80
14142;DHT22;7151;52.246;4.820;2022-08-11T04:13:36;25.30;53.80
14142;DHT22;7151;52.246;4.820;2022-08-11T04:16:38;25.30;53.90
14142;DHT22;7151;52.246;4.820;2022-08-11T04:22:26;25.20;54.00
14142;DHT22;7151;52.246;4.820;2022-08-11T04:25:51;25.20;54.00
14142;DHT22;7151;52.246;4.820;2022-08-11T04:37:28;25.10;54.10
14142;DHT22;7151;52.246;4.820;2022-08-11T04:54:52;25.00;54.40
14142;DHT22;7151;52.246;4.820;2022-08-11T05:07:44;24.90;54.70
14142;DHT22;7151;52.246;4.820;2022-08-11T05:13:32;24.80;54.80
14142;DHT22;7151;52.246;4.820;2022-08-11T05:16:20;24.90;54.90
14142;DHT22;7151;52.246;4.820;2022-08-11T05:19:06;24.80;54.90
14142;DHT22;7151;52.246;4.820;2022-08-11T05:21:58;24.80;55.00
14142;DHT22;7151;52.246;4.820;2022-08-11T05:24:46;24.80;55.00
14142;DHT22;7151;52.246;4.820;2022-08-11T05:27:54;24.80;55.00
14142;DHT22;7151;52.246;4.820;2022-08-11T05:30:43;24.90;55.10
14142;DHT22;7151;52.246;4.820;2022-08-11T05:33:40;24.80;55.00
14142;DHT22;7151;52.246;4.820;2022-08-11T05:36:43;24.90;55.20
14142;DHT22;7151;52.246;4.820;2022-08-11T05:39:20;24.90;55.70
14142;DHT22;7151;52.246;4.820;2022-08-11T05:42:07;24.90;55.10
14142;DHT22;7151;52.246;4.820;2022-08-11T05:44:56;24.90;55.10
14142;DHT22;7151;52.246;4.820;2022-08-11T05:47:42;24.90;55.10
14142;DHT22;7151;52.246;4.820;2022-08-11T05:50:31;25.00;55.20
14142;DHT22;7151;52.246;4.820;2022-08-11T05:53:15;24.90;55.10
14142;DHT22;7151;52.246;4.820;2022-08-11T05:56:04;25.00;55.10
14142;DHT22;7151;52.246;4.820;2022-08-11T05:58:51;25.00;55.20
14142;DHT22;7151;52.246;4.820;2022-08-11T06:01:29;25.00;55.80
14142;DHT22;7151;52.246;4.820;2022-08-11T06:03:57;25.00;55.30
14142;DHT22;7151;52.246;4.820;2022-08-11T06:06:57;25.00;55.30
14142;DHT22;7151;52.246;4.820;2022-08-11T06:09:27;25.00;55.30
14142;DHT22;7151;52.246;4.820;2022-08-11T06:11:56;25.00;55.30
14142;DHT22;7151;52.246;4.820;2022-08-11T06:14:23;25.00;55.40
14142;DHT22;7151;52.246;4.820;2022-08-11T06:16:54;25.10;55.80
14142;DHT22;7151;52.246;4.820;2022-08-11T06:19:21;25.10;55.40
14142;DHT22;7151;52.246;4.820;2022-08-11T06:21:48;25.10;55.40
14142;DHT22;7151;52.246;4.820;2022-08-11T06:24:16;25.10;55.40
14142;DHT22;7151;52.246;4.820;2022-08-11T06:26:52;25.10;55.40
14142;DHT22;7151;52.246;4.820;2022-08-11T06:29:19;25.20;55.40
14142;DHT22;7151;52.246;4.820;2022-08-11T06:31:57;25.20;55.30
14142;DHT22;7151;52.246;4.820;2022-08-11T06:37:39;25.20;55.20
14142;DHT22;7151;52.246;4.820;2022-08-11T06:40:45;25.30;55.10
14142;DHT22;7151;52.246;4.820;2022-08-11T06:46:16;25.30;54.80
14142;DHT22;7151;52.246;4.820;2022-08-11T06:48:47;25.30;54.70
14142;DHT22;7151;52.246;4.820;2022-08-11T06:51:14;25.40;54.70
14142;DHT22;7151;52.246;4.820;2022-08-11T06:53:49;25.40;54.60
14142;DHT22;7151;52.246;4.820;2022-08-11T06:56:24;25.40;54.50
14142;DHT22;7151;52.246;4.820;2022-08-11T06:59:11;25.40;54.50
14142;DHT22;7151;52.246;4.820;2022-08-11T07:04:46;25.50;54.40
14142;DHT22;7151;52.246;4.820;2022-08-11T07:10:19;25.60;54.10
14142;DHT22;7151;52.246;4.820;2022-08-11T07:13:06;25.50;53.90
14142;DHT22;7151;52.246;4.820;2022-08-11T07:15:51;25.60;53.90
14142;DHT22;7151;52.246;4.820;2022-08-11T07:18:23;25.60;53.60
14142;DHT22;7151;52.246;4.820;2022-08-11T07:21:15;25.60;53.60
14142;DHT22;7151;52.246;4.820;2022-08-11T07:24:10;25.70;53.70
14142;DHT22;7151;52.246;4.820;2022-08-11T07:26:54;25.70;53.60
14142;DHT22;7151;52.246;4.820;2022-08-11T07:29:41;25.80;53.60
14142;DHT22;7151;52.246;4.820;2022-08-11T07:32:15;25.80;53.60
14142;DHT22;7151;52.246;4.820;2022-08-11T07:34:47;25.90;53.60
14142;DHT22;7151;52.246;4.820;2022-08-11T07:37:16;25.90;53.40
14142;DHT22;7151;52.246;4.820;2022-08-11T07:39:45;26.00;53.40
14142;DHT22;7151;52.246;4.820;2022-08-11T07:42:13;26.00;53.40
14142;DHT22;7151;52.246;4.820;2022-08-11T07:44:40;26.00;53.40
14142;DHT22;7151;52.246;4.820;2022-08-11T07:47:26;26.00;53.40
14142;DHT22;7151;52.246;4.820;2022-08-11T07:50:12;26.10;53.30
14142;DHT22;7151;52.246;4.820;2022-08-11T07:52:57;26.20;53.30
14142;DHT22;7151;52.246;4.820;2022-08-11T07:55:25;26.20;53.30
14142;DHT22;7151;52.246;4.820;2022-08-11T07:57:52;26.20;53.10
14142;DHT22;7151;52.246;4.820;2022-08-11T08:00:41;26.30;53.00
14142;DHT22;7151;52.246;4.820;2022-08-11T08:03:28;26.40;52.90
14142;DHT22;7151;52.246;4.820;2022-08-11T08:06:13;26.40;52.90
14142;DHT22;7151;52.246;4.820;2022-08-11T08:08:59;26.40;52.80
14142;DHT22;7151;52.246;4.820;2022-08-11T08:11:43;26.50;52.70
14142;DHT22;7151;52.246;4.820;2022-08-11T08:14:29;26.50;52.60
14142;DHT22;7151;52.246;4.820;2022-08-11T08:17:14;26.60;52.60
14142;DHT22;7151;52.246;4.820;2022-08-11T08:19:58;26.60;52.70
14142;DHT22;7151;52.246;4.820;2022-08-11T08:22:24;26.70;52.60
14142;DHT22;7151;52.246;4.820;2022-08-11T08:24:50;26.70;52.30
14142;DHT22;7151;52.246;4.820;2022-08-11T08:27:18;26.80;52.20
14142;DHT22;7151;52.246;4.820;2022-08-11T08:29:45;26.80;52.10
14142;DHT22;7151;52.246;4.820;2022-08-11T08:32:30;26.90;52.10
14142;DHT22;7151;52.246;4.820;2022-08-11T08:34:57;27.00;52.00
14142;DHT22;7151;52.246;4.820;2022-08-11T08:37:24;27.00;51.80
14142;DHT22;7151;52.246;4.820;2022-08-11T08:39:51;27.00;51.60
14142;DHT22;7151;52.246;4.820;2022-08-11T08:42:24;27.10;51.50
14142;DHT22;7151;52.246;4.820;2022-08-11T08:44:59;27.20;51.40
14142;DHT22;7151;52.246;4.820;2022-08-11T08:47:28;27.30;51.40
14142;DHT22;7151;52.246;4.820;2022-08-11T08:49:59;27.30;51.10
14142;DHT22;7151;52.246;4.820;2022-08-11T08:52:29;27.40;50.70
14142;DHT22;7151;52.246;4.820;2022-08-11T08:54:57;27.50;50.50
14142;DHT22;7151;52.246;4.820;2022-08-11T08:57:27;27.50;50.40
14142;DHT22;7151;52.246;4.820;2022-08-11T08:59:54;27.60;50.60
14142;DHT22;7151;52.246;4.820;2022-08-11T09:02:24;27.60;50.60
14142;DHT22;7151;52.246;4.820;2022-08-11T09:04:50;27.70;50.40
14142;DHT22;7151;52.246;4.820;2022-08-11T09:07:17;27.80;50.10
14142;DHT22;7151;52.246;4.820;2022-08-11T09:09:49;27.80;49.70
14142;DHT22;7151;52.246;4.820;2022-08-11T09:12:15;27.80;49.30
14142;DHT22;7151;52.246;4.820;2022-08-11T09:14:46;27.90;49.20
14142;DHT22;7151;52.246;4.820;2022-08-11T09:17:26;28.00;49.10
14142;DHT22;7151;52.246;4.820;2022-08-11T09:20:05;28.00;49.60
14142;DHT22;7151;52.246;4.820;2022-08-11T09:22:34;28.10;48.80
14142;DHT22;7151;52.246;4.820;2022-08-11T09:25:20;28.20;48.80
14142;DHT22;7151;52.246;4.820;2022-08-11T09:28:09;28.20;49.10
14142;DHT22;7151;52.246;4.820;2022-08-11T09:30:36;28.30;49.20
14142;DHT22;7151;52.246;4.820;2022-08-11T09:33:05;28.40;48.90
14142;DHT22;7151;52.246;4.820;2022-08-11T09:35:34;28.50;48.70
14142;DHT22;7151;52.246;4.820;2022-08-11T09:38:01;28.60;49.00
14142;DHT22;7151;52.246;4.820;2022-08-11T09:40:47;28.60;49.00
14142;DHT22;7151;52.246;4.820;2022-08-11T09:43:16;28.70;49.00
14142;DHT22;7151;52.246;4.820;2022-08-11T09:46:02;28.70;48.70
14142;DHT22;7151;52.246;4.820;2022-08-11T09:48:34;28.80;48.50
14142;DHT22;7151;52.246;4.820;2022-08-11T09:51:00;28.90;49.00
14142;DHT22;7151;52.246;4.820;2022-08-11T09:53:30;28.90;48.50
14142;DHT22;7151;52.246;4.820;2022-08-11T09:55:56;29.00;48.60
14142;DHT22;7151;52.246;4.820;2022-08-11T09:58:22;29.00;48.60
14142;DHT22;7151;52.246;4.820;2022-08-11T10:00:49;29.10;48.40
14142;DHT22;7151;52.246;4.820;2022-08-11T10:03:17;29.20;48.20
14142;DHT22;7151;52.246;4.820;2022-08-11T10:05:53;29.30;48.10
14142;DHT22;7151;52.246;4.820;2022-08-11T10:08:41;29.40;47.80
14142;DHT22;7151;52.246;4.820;2022-08-11T10:11:11;29.40;47.70
14142;DHT22;7151;52.246;4.820;2022-08-11T10:13:42;29.50;47.60
14142;DHT22;7151;52.246;4.820;2022-08-11T10:16:28;29.60;47.40
14142;DHT22;7151;52.246;4.820;2022-08-11T10:18:57;29.70;47.20
14142;DHT22;7151;52.246;4.820;2022-08-11T10:21:41;29.80;47.00
14142;DHT22;7151;52.246;4.820;2022-08-11T10:24:09;29.80;46.80
14142;DHT22;7151;52.246;4.820;2022-08-11T10:26:55;29.90;46.90
14142;DHT22;7151;52.246;4.820;2022-08-11T10:29:27;30.00;46.80
14142;DHT22;7151;52.246;4.820;2022-08-11T10:32:13;30.00;46.50
14142;DHT22;7151;52.246;4.820;2022-08-11T10:35:01;30.10;46.70
14142;DHT22;7151;52.246;4.820;2022-08-11T10:37:29;30.10;46.10
14142;DHT22;7151;52.246;4.820;2022-08-11T10:39:59;30.20;46.10
14142;DHT22;7151;52.246;4.820;2022-08-11T10:42:25;30.30;45.90
14142;DHT22;7151;52.246;4.820;2022-08-11T10:45:10;30.40;45.80
14142;DHT22;7151;52.246;4.820;2022-08-11T10:47:56;30.50;45.70
14142;DHT22;7151;52.246;4.820;2022-08-11T10:50:23;30.60;45.50
14142;DHT22;7151;52.246;4.820;2022-08-11T10:53:08;30.60;45.20
14142;DHT22;7151;52.246;4.820;2022-08-11T10:55:52;30.70;45.10
14142;DHT22;7151;52.246;4.820;2022-08-11T10:58:38;30.70;45.00
14142;DHT22;7151;52.246;4.820;2022-08-11T11:01:10;30.80;45.00
14142;DHT22;7151;52.246;4.820;2022-08-11T11:03:37;30.90;44.80
14142;DHT22;7151;52.246;4.820;2022-08-11T11:08:59;31.00;44.10
14142;DHT22;7151;52.246;4.820;2022-08-11T11:11:33;31.10;43.90
14142;DHT22;7151;52.246;4.820;2022-08-11T11:14:19;31.20;43.40
14142;DHT22;7151;52.246;4.820;2022-08-11T11:17:05;31.30;43.30
14142;DHT22;7151;52.246;4.820;2022-08-11T11:19:38;31.30;43.00
14142;DHT22;7151;52.246;4.820;2022-08-11T11:22:05;31.40;42.70
14142;DHT22;7151;52.246;4.820;2022-08-11T11:25:08;31.50;42.70
14142;DHT22;7151;52.246;4.820;2022-08-11T11:30:12;31.60;42.70
14142;DHT22;7151;52.246;4.820;2022-08-11T11:32:47;31.70;42.30
14142;DHT22;7151;52.246;4.820;2022-08-11T11:38:09;31.80;41.90
14142;DHT22;7151;52.246;4.820;2022-08-11T11:40:35;31.90;42.20
14142;DHT22;7151;52.246;4.820;2022-08-11T11:43:03;32.00;41.80
14142;DHT22;7151;52.246;4.820;2022-08-11T11:45:29;32.10;41.50
14142;DHT22;7151;52.246;4.820;2022-08-11T11:47:57;32.10;41.20
14142;DHT22;7151;52.246;4.820;2022-08-11T11:50:26;32.20;41.20
14142;DHT22;7151;52.246;4.820;2022-08-11T11:52:53;32.30;41.20
14142;DHT22;7151;52.246;4.820;2022-08-11T11:55:21;32.30;41.00
14142;DHT22;7151;52.246;4.820;2022-08-11T11:57:47;32.40;40.80
14142;DHT22;7151;52.246;4.820;2022-08-11T12:00:32;32.50;40.70
14142;DHT22;7151;52.246;4.820;2022-08-11T12:03:17;32.60;40.40
14142;DHT22;7151;52.246;4.820;2022-08-11T12:05:44;32.70;40.40
14142;DHT22;7151;52.246;4.820;2022-08-11T12:08:11;32.70;40.20
14142;DHT22;7151;52.246;4.820;2022-08-11T12:10:48;32.70;39.90
14142;DHT22;7151;52.246;4.820;2022-08-11T12:13:16;32.80;39.50
14142;DHT22;7151;52.246;4.820;2022-08-11T12:16:01;32.90;39.30
14142;DHT22;7151;52.246;4.820;2022-08-11T12:18:34;33.00;39.30
14142;DHT22;7151;52.246;4.820;2022-08-11T12:21:02;33.00;38.80
14142;DHT22;7151;52.246;4.820;2022-08-11T12:23:28;33.10;38.90
14142;DHT22;7151;52.246;4.820;2022-08-11T12:26:14;33.10;39.10
14142;DHT22;7151;52.246;4.820;2022-08-11T12:28:59;33.20;39.00
14142;DHT22;7151;52.246;4.820;2022-08-11T12:31:27;33.30;38.80
14142;DHT22;7151;52.246;4.820;2022-08-11T12:34:09;33.30;38.90
14142;DHT22;7151;52.246;4.820;2022-08-11T12:36:50;33.40;38.70
14142;DHT22;7151;52.246;4.820;2022-08-11T12:39:24;33.50;38.70
14142;DHT22;7151;52.246;4.820;2022-08-11T12:42:13;33.60;38.60
14142;DHT22;7151;52.246;4.820;2022-08-11T12:45:01;33.70;38.50
14142;DHT22;7151;52.246;4.820;2022-08-11T12:47:49;33.80;38.30
14142;DHT22;7151;52.246;4.820;2022-08-11T12:50:35;33.90;38.20
14142;DHT22;7151;52.246;4.820;2022-08-11T12:53:27;33.90;38.20
14142;DHT22;7151;52.246;4.820;2022-08-11T12:56:02;34.00;37.60
14142;DHT22;7151;52.246;4.820;2022-08-11T12:58:48;34.10;37.60
14142;DHT22;7151;52.246;4.820;2022-08-11T13:01:14;34.10;37.50
14142;DHT22;7151;52.246;4.820;2022-08-11T13:03:59;34.30;37.10
14142;DHT22;7151;52.246;4.820;2022-08-11T13:06:43;34.30;36.80
14142;DHT22;7151;52.246;4.820;2022-08-11T13:09:10;34.40;36.30
14142;DHT22;7151;52.246;4.820;2022-08-11T13:11:38;34.50;36.10
14142;DHT22;7151;52.246;4.820;2022-08-11T13:14:24;34.50;35.80
14142;DHT22;7151;52.246;4.820;2022-08-11T13:16:50;34.70;35.70
14142;DHT22;7151;52.246;4.820;2022-08-11T13:19:35;34.70;35.50
14142;DHT22;7151;52.246;4.820;2022-08-11T13:22:02;34.80;35.70
14142;DHT22;7151;52.246;4.820;2022-08-11T13:24:30;34.90;35.50
14142;DHT22;7151;52.246;4.820;2022-08-11T13:26:58;34.90;35.10
14142;DHT22;7151;52.246;4.820;2022-08-11T13:29:25;35.00;35.10
14142;DHT22;7151;52.246;4.820;2022-08-11T13:31:54;35.10;35.00
14142;DHT22;7151;52.246;4.820;2022-08-11T13:34:22;35.20;35.10
14142;DHT22;7151;52.246;4.820;2022-08-11T13:36:50;35.20;35.00
14142;DHT22;7151;52.246;4.820;2022-08-11T13:39:17;35.30;34.60
14142;DHT22;7151;52.246;4.820;2022-08-11T13:41:43;35.40;34.50
14142;DHT22;7151;52.246;4.820;2022-08-11T13:44:13;35.40;34.30
14142;DHT22;7151;52.246;4.820;2022-08-11T13:46:40;35.50;34.30
14142;DHT22;7151;52.246;4.820;2022-08-11T13:49:07;35.50;34.40
14142;DHT22;7151;52.246;4.820;2022-08-11T13:51:35;35.60;34.20
14142;DHT22;7151;52.246;4.820;2022-08-11T13:54:10;35.60;34.00
14142;DHT22;7151;52.246;4.820;2022-08-11T13:56:38;35.70;34.30
14142;DHT22;7151;52.246;4.820;2022-08-11T13:59:07;35.80;33.60
14142;DHT22;7151;52.246;4.820;2022-08-11T14:01:36;35.80;33.50
14142;DHT22;7151;52.246;4.820;2022-08-11T14:04:17;35.90;33.10
14142;DHT22;7151;52.246;4.820;2022-08-11T14:06:50;36.00;32.90
14142;DHT22;7151;52.246;4.820;2022-08-11T14:09:22;36.10;33.00
14142;DHT22;7151;52.246;4.820;2022-08-11T14:11:49;36.10;32.80
14142;DHT22;7151;52.246;4.820;2022-08-11T14:14:36;36.10;32.60
14142;DHT22;7151;52.246;4.820;2022-08-11T14:17:05;36.20;32.40
14142;DHT22;7151;52.246;4.820;2022-08-11T14:19:38;36.20;32.20
14142;DHT22;7151;52.246;4.820;2022-08-11T14:22:05;36.30;32.20
14142;DHT22;7151;52.246;4.820;2022-08-11T14:24:39;36.30;32.90
14142;DHT22;7151;52.246;4.820;2022-08-11T14:27:07;36.40;32.20
14142;DHT22;7151;52.246;4.820;2022-08-11T14:29:34;36.50;32.20
14142;DHT22;7151;52.246;4.820;2022-08-11T14:32:05;36.50;32.10
14142;DHT22;7151;52.246;4.820;2022-08-11T14:34:33;36.60;31.90
14142;DHT22;7151;52.246;4.820;2022-08-11T14:37:07;36.60;31.80
14142;DHT22;7151;52.246;4.820;2022-08-11T14:40:12;36.70;31.70
14142;DHT22;7151;52.246;4.820;2022-08-11T14:42:51;36.80;31.60
14142;DHT22;7151;52.246;4.820;2022-08-11T14:45:36;36.90;31.60
14142;DHT22;7151;52.246;4.820;2022-08-11T14:48:23;37.00;31.30
14142;DHT22;7151;52.246;4.820;2022-08-11T14:50:49;37.00;31.20
14142;DHT22;7151;52.246;4.820;2022-08-11T14:53:14;37.10;31.30
14142;DHT22;7151;52.246;4.820;2022-08-11T14:55:41;37.10;31.00
14142;DHT22;7151;52.246;4.820;2022-08-11T14:58:28;37.20;30.80
14142;DHT22;7151;52.246;4.820;2022-08-11T15:00:56;37.20;30.80
14142;DHT22;7151;52.246;4.820;2022-08-11T15:03:24;37.20;30.50
14142;DHT22;7151;52.246;4.820;2022-08-11T15:05:56;37.20;30.20
14142;DHT22;7151;52.246;4.820;2022-08-11T15:08:30;37.30;30.20
14142;DHT22;7151;52.246;4.820;2022-08-11T15:11:17;37.30;30.20
14142;DHT22;7151;52.246;4.820;2022-08-11T15:14:03;37.30;30.20
14142;DHT22;7151;52.246;4.820;2022-08-11T15:16:30;37.30;30.00
14142;DHT22;7151;52.246;4.820;2022-08-11T15:19:15;37.40;29.90
14142;DHT22;7151;52.246;4.820;2022-08-11T15:21:43;37.40;29.80
14142;DHT22;7151;52.246;4.820;2022-08-11T15:24:28;37.40;29.70
14142;DHT22;7151;52.246;4.820;2022-08-11T15:26:55;37.40;29.60
14142;DHT22;7151;52.246;4.820;2022-08-11T15:29:54;37.40;29.50
14142;DHT22;7151;52.246;4.820;2022-08-11T15:32:40;37.30;29.40
14142;DHT22;7151;52.246;4.820;2022-08-11T15:35:27;37.20;29.40
14142;DHT22;7151;52.246;4.820;2022-08-11T15:38:12;37.10;29.50
14142;DHT22;7151;52.246;4.820;2022-08-11T15:40:40;37.00;29.50
14142;DHT22;7151;52.246;4.820;2022-08-11T15:43:30;36.90;29.40
14142;DHT22;7151;52.246;4.820;2022-08-11T15:46:22;36.70;29.40
14142;DHT22;7151;52.246;4.820;2022-08-11T15:49:12;36.60;29.40
14142;DHT22;7151;52.246;4.820;2022-08-11T15:51:59;36.50;29.50
14142;DHT22;7151;52.246;4.820;2022-08-11T15:54:30;36.30;29.70
14142;DHT22;7151;52.246;4.820;2022-08-11T15:56:57;36.20;29.80
14142;DHT22;7151;52.246;4.820;2022-08-11T15:59:27;36.10;29.80
14142;DHT22;7151;52.246;4.820;2022-08-11T16:02:16;36.00;29.90
14142;DHT22;7151;52.246;4.820;2022-08-11T16:04:53;35.90;30.00
14142;DHT22;7151;52.246;4.820;2022-08-11T16:07:21;35.90;30.10
14142;DHT22;7151;52.246;4.820;2022-08-11T16:10:11;35.80;30.60
14142;DHT22;7151;52.246;4.820;2022-08-11T16:12:42;35.70;30.00
14142;DHT22;7151;52.246;4.820;2022-08-11T16:15:28;35.60;30.00
14142;DHT22;7151;52.246;4.820;2022-08-11T16:18:16;35.60;30.30
14142;DHT22;7151;52.246;4.820;2022-08-11T16:20:44;35.50;30.10
14142;DHT22;7151;52.246;4.820;2022-08-11T16:23:12;35.40;30.10
14142;DHT22;7151;52.246;4.820;2022-08-11T16:25:39;35.40;30.40
14142;DHT22;7151;52.246;4.820;2022-08-11T16:28:06;35.30;30.40
14142;DHT22;7151;52.246;4.820;2022-08-11T16:30:39;35.20;30.50
14142;DHT22;7151;52.246;4.820;2022-08-11T16:33:05;35.20;30.80
14142;DHT22;7151;52.246;4.820;2022-08-11T16:35:35;35.20;30.70
14142;DHT22;7151;52.246;4.820;2022-08-11T16:38:25;35.10;30.80
14142;DHT22;7151;52.246;4.820;2022-08-11T16:41:06;35.10;30.80
14142;DHT22;7151;52.246;4.820;2022-08-11T16:43:34;35.10;30.90
14142;DHT22;7151;52.246;4.820;2022-08-11T16:46:21;35.00;30.90
14142;DHT22;7151;52.246;4.820;2022-08-11T16:49:16;35.00;30.80
14142;DHT22;7151;52.246;4.820;2022-08-11T16:51:43;34.90;30.60
14142;DHT22;7151;52.246;4.820;2022-08-11T16:54:09;34.90;30.70
14142;DHT22;7151;52.246;4.820;2022-08-11T16:56:44;34.80;30.60
14142;DHT22;7151;52.246;4.820;2022-08-11T16:59:25;34.80;30.70
14142;DHT22;7151;52.246;4.820;2022-08-11T17:02:10;34.70;30.90
14142;DHT22;7151;52.246;4.820;2022-08-11T17:04:51;34.70;30.90
14142;DHT22;7151;52.246;4.820;2022-08-11T17:07:40;34.70;31.00
14142;DHT22;7151;52.246;4.820;2022-08-11T17:10:33;34.60;31.00
14142;DHT22;7151;52.246;4.820;2022-08-11T17:13:21;34.50;31.00
14142;DHT22;7151;52.246;4.820;2022-08-11T17:15:50;34.50;31.10
14142;DHT22;7151;52.246;4.820;2022-08-11T17:21:15;34.40;31.20
14142;DHT22;7151;52.246;4.820;2022-08-11T17:23:49;34.40;31.30
14142;DHT22;7151;52.246;4.820;2022-08-11T17:26:32;34.30;31.40
14142;DHT22;7151;52.246;4.820;2022-08-11T17:29:22;34.30;31.50
14142;DHT22;7151;52.246;4.820;2022-08-11T17:31:49;34.30;31.70
14142;DHT22;7151;52.246;4.820;2022-08-11T17:34:34;34.20;31.70
14142;DHT22;7151;52.246;4.820;2022-08-11T17:37:20;34.20;31.90
14142;DHT22;7151;52.246;4.820;2022-08-11T17:39:47;34.20;32.00
14142;DHT22;7151;52.246;4.820;2022-08-11T17:42:14;34.20;32.20
14142;DHT22;7151;52.246;4.820;2022-08-11T17:44:59;34.10;32.40
14142;DHT22;7151;52.246;4.820;2022-08-11T17:47:45;34.00;32.50
14142;DHT22;7151;52.246;4.820;2022-08-11T17:50:30;34.10;32.80
14142;DHT22;7151;52.246;4.820;2022-08-11T17:52:57;34.00;33.00
14142;DHT22;7151;52.246;4.820;2022-08-11T17:55:42;34.00;33.20
14142;DHT22;7151;52.246;4.820;2022-08-11T17:58:28;34.00;33.30
14142;DHT22;7151;52.246;4.820;2022-08-11T18:01:14;34.00;33.40
14142;DHT22;7151;52.246;4.820;2022-08-11T18:03:42;33.90;33.40
14142;DHT22;7151;52.246;4.820;2022-08-11T18:06:11;33.80;33.40
14142;DHT22;7151;52.246;4.820;2022-08-11T18:08:45;33.80;33.60
14142;DHT22;7151;52.246;4.820;2022-08-11T18:11:31;33.80;33.80
14142;DHT22;7151;52.246;4.820;2022-08-11T18:14:17;33.80;33.90
14142;DHT22;7151;52.246;4.820;2022-08-11T18:17:02;33.80;34.00
14142;DHT22;7151;52.246;4.820;2022-08-11T18:19:47;33.70;33.90
14142;DHT22;7151;52.246;4.820;2022-08-11T18:22:35;33.70;34.10
14142;DHT22;7151;52.246;4.820;2022-08-11T18:25:23;33.70;34.30
14142;DHT22;7151;52.246;4.820;2022-08-11T18:28:11;33.60;34.50
14142;DHT22;7151;52.246;4.820;2022-08-11T18:30:59;33.60;34.70
14142;DHT22;7151;52.246;4.820;2022-08-11T18:33:49;33.50;35.00
14142;DHT22;7151;52.246;4.820;2022-08-11T18:36:40;33.50;35.20
14142;DHT22;7151;52.246;4.820;2022-08-11T18:39:29;33.50;35.50
14142;DHT22;7151;52.246;4.820;2022-08-11T18:42:16;33.40;35.60
14142;DHT22;7151;52.246;4.820;2022-08-11T18:45:04;33.40;35.90
14142;DHT22;7151;52.246;4.820;2022-08-11T18:47:51;33.30;36.10
14142;DHT22;7151;52.246;4.820;2022-08-11T18:50:40;33.30;36.30
14142;DHT22;7151;52.246;4.820;2022-08-11T18:53:27;33.20;36.60
14142;DHT22;7151;52.246;4.820;2022-08-11T18:56:14;33.20;36.80
14142;DHT22;7151;52.246;4.820;2022-08-11T18:59:01;33.20;37.00
14142;DHT22;7151;52.246;4.820;2022-08-11T19:01:46;33.00;37.10
14142;DHT22;7151;52.246;4.820;2022-08-11T19:04:31;33.00;37.40
14142;DHT22;7151;52.246;4.820;2022-08-11T19:07:16;33.00;37.60
14142;DHT22;7151;52.246;4.820;2022-08-11T19:10:03;32.90;37.70
14142;DHT22;7151;52.246;4.820;2022-08-11T19:12:48;32.90;38.00
14142;DHT22;7151;52.246;4.820;2022-08-11T19:15:34;32.80;38.10
14142;DHT22;7151;52.246;4.820;2022-08-11T19:18:22;32.70;38.30
14142;DHT22;7151;52.246;4.820;2022-08-11T19:21:07;32.70;38.70
14142;DHT22;7151;52.246;4.820;2022-08-11T19:23:55;32.60;38.80
14142;DHT22;7151;52.246;4.820;2022-08-11T19:26:40;32.60;39.00
14142;DHT22;7151;52.246;4.820;2022-08-11T19:29:27;32.50;39.00
14142;DHT22;7151;52.246;4.820;2022-08-11T19:32:12;32.50;39.20
14142;DHT22;7151;52.246;4.820;2022-08-11T19:34:59;32.40;39.40
14142;DHT22;7151;52.246;4.820;2022-08-11T19:37:44;32.30;39.60
14142;DHT22;7151;52.246;4.820;2022-08-11T19:40:30;32.30;39.70
14142;DHT22;7151;52.246;4.820;2022-08-11T19:43:17;32.20;39.80
14142;DHT22;7151;52.246;4.820;2022-08-11T19:46:02;32.20;40.00
14142;DHT22;7151;52.246;4.820;2022-08-11T19:48:50;32.10;40.10
14142;DHT22;7151;52.246;4.820;2022-08-11T19:51:35;32.10;40.30
14142;DHT22;7151;52.246;4.820;2022-08-11T19:54:23;32.00;40.30